sensor_id;sensor_type;location;lat;lon;timestamp;temperature;humidity
63960;DHT22;50136;51.374;0.096;2023-04-15T00:01:06;8.10;99.90
63960;DHT22;50136;51.374;0.096;2023-04-15T00:11:10;8.10;99.90
63960;DHT22;50136;51.374;0.096;2023-04-15T00:21:12;7.90;99.90
63960;DHT22;50136;51.374;0.096;2023-04-15T00:31:15;7.80;99.90
63960;DHT22;50136;51.374;0.096;2023-04-15T00:41:17;7.80;99.90
63960;DHT22;50136;51.374;0.096;2023-04-15T00:51:21;7.70;99.90
63960;DHT22;50136;51.374;0.096;2023-04-15T01:01:23;7.60;99.90
63960;DHT22;50136;51.374;0.096;2023-04-15T01:11:28;7.60;99.90
63960;DHT22;50136;51.374;0.096;2023-04-15T01:21:31;7.70;99.90
63960;DHT22;50136;51.374;0.096;2023-04-15T01:31:34;7.70;99.90
63960;DHT22;50136;51.374;0.096;2023-04-15T01:41:36;7.70;99.90
63960;DHT22;50136;51.374;0.096;2023-04-15T01:51:39;7.70;99.90
63960;DHT22;50136;51.374;0.096;2023-04-15T02:01:41;7.60;99.90
63960;DHT22;50136;51.374;0.096;2023-04-15T02:11:44;7.60;99.90
63960;DHT22;50136;51.374;0.096;2023-04-15T02:21:46;7.80;99.90
63960;DHT22;50136;51.374;0.096;2023-04-15T02:31:50;7.60;99.90
63960;DHT22;50136;51.374;0.096;2023-04-15T02:41:52;7.40;99.90
63960;DHT22;50136;51.374;0.096;2023-04-15T02:51:55;7.40;99.90
63960;DHT22;50136;51.374;0.096;2023-04-15T03:01:57;7.30;99.90
63960;DHT22;50136;51.374;0.096;2023-04-15T03:12:00;7.30;99.90
63960;DHT22;50136;51.374;0.096;2023-04-15T03:22:02;7.20;99.90
63960;DHT22;50136;51.374;0.096;2023-04-15T03:32:06;7.10;99.90
63960;DHT22;50136;51.374;0.096;2023-04-15T03:42:08;7.10;99.90
63960;DHT22;50136;51.374;0.096;2023-04-15T03:52:11;7.00;99.90
63960;DHT22;50136;51.374;0.096;2023-04-15T04:02:14;7.00;99.90
63960;DHT22;50136;51.374;0.096;2023-04-15T04:12:18;7.00;99.90
63960;DHT22;50136;51.374;0.096;2023-04-15T04:22:21;7.10;99.90
63960;DHT22;50136;51.374;0.096;2023-04-15T04:32:25;7.00;99.90
63960;DHT22;50136;51.374;0.096;2023-04-15T04:42:28;7.00;99.90
63960;DHT22;50136;51.374;0.096;2023-04-15T04:52:31;6.90;99.90
63960;DHT22;50136;51.374;0.096;2023-04-15T05:02:33;7.00;99.90
63960;DHT22;50136;51.374;0.096;2023-04-15T05:12:37;7.00;99.90
63960;DHT22;50136;51.374;0.096;2023-04-15T05:22:39;7.10;99.90
63960;DHT22;50136;51.374;0.096;2023-04-15T05:32:43;7.10;99.90
63960;DHT22;50136;51.374;0.096;2023-04-15T05:42:44;7.10;99.90
63960;DHT22;50136;51.374;0.096;2023-04-15T05:52:48;7.20;99.90
63960;DHT22;50136;51.374;0.096;2023-04-15T06:02:50;7.20;99.90
63960;DHT22;50136;51.374;0.096;2023-04-15T06:12:53;7.50;99.90
63960;DHT22;50136;51.374;0.096;2023-04-15T06:22:56;7.60;99.90
63960;DHT22;50136;51.374;0.096;2023-04-15T06:32:59;7.50;99.90
63960;DHT22;50136;51.374;0.096;2023-04-15T06:43:01;7.50;99.90
63960;DHT22;50136;51.374;0.096;2023-04-15T06:53:05;7.70;99.90
63960;DHT22;50136;51.374;0.096;2023-04-15T07:03:07;7.80;99.90
63960;DHT22;50136;51.374;0.096;2023-04-15T07:13:10;7.90;99.90
63960;DHT22;50136;51.374;0.096;2023-04-15T07:23:12;7.90;99.90
63960;DHT22;50136;51.374;0.096;2023-04-15T07:33:15;7.90;99.90
63960;DHT22;50136;51.374;0.096;2023-04-15T07:43:17;8.00;99.90
63960;DHT22;50136;51.374;0.096;2023-04-15T07:53:21;8.00;99.90
63960;DHT22;50136;51.374;0.096;2023-04-15T08:03:23;8.00;99.90
63960;DHT22;50136;51.374;0.096;2023-04-15T08:13:27;8.10;99.90
63960;DHT22;50136;51.374;0.096;2023-04-15T08:23:29;8.40;99.90
63960;DHT22;50136;51.374;0.096;2023-04-15T08:33:32;8.60;99.90
63960;DHT22;50136;51.374;0.096;2023-04-15T08:43:35;8.90;99.90
63960;DHT22;50136;51.374;0.096;2023-04-15T08:53:40;8.90;99.90
63960;DHT22;50136;51.374;0.096;2023-04-15T09:03:43;9.30;99.90
63960;DHT22;50136;51.374;0.096;2023-04-15T09:13:48;9.70;99.90
63960;DHT22;50136;51.374;0.096;2023-04-15T09:23:58;9.70;99.90
63960;DHT22;50136;51.374;0.096;2023-04-15T09:34:02;9.90;99.90
63960;DHT22;50136;51.374;0.096;2023-04-15T09:44:05;10.10;99.90
63960;DHT22;50136;51.374;0.096;2023-04-15T10:16:15;11.40;99.90
63960;DHT22;50136;51.374;0.096;2023-04-15T10:26:18;11.20;99.90
63960;DHT22;50136;51.374;0.096;2023-04-15T10:36:42;11.30;99.90
63960;DHT22;50136;51.374;0.096;2023-04-15T10:46:59;11.20;99.90
63960;DHT22;50136;51.374;0.096;2023-04-15T10:57:13;11.30;99.90
63960;DHT22;50136;51.374;0.096;2023-04-15T12:11:47;15.30;99.90
63960;DHT22;50136;51.374;0.096;2023-04-15T12:32:54;14.30;99.90
63960;DHT22;50136;51.374;0.096;2023-04-15T12:42:56;14.60;99.90
63960;DHT22;50136;51.374;0.096;2023-04-15T13:14:57;15.30;99.90
63960;DHT22;50136;51.374;0.096;2023-04-15T13:24:59;14.60;99.90
63960;DHT22;50136;51.374;0.096;2023-04-15T13:46:06;15.50;99.90
63960;DHT22;50136;51.374;0.096;2023-04-15T14:07:26;15.20;99.90
63960;DHT22;50136;51.374;0.096;2023-04-15T14:18:03;15.50;99.90
63960;DHT22;50136;51.374;0.096;2023-04-15T14:28:07;15.60;99.90
63960;DHT22;50136;51.374;0.096;2023-04-15T14:38:10;16.40;99.90
63960;DHT22;50136;51.374;0.096;2023-04-15T14:48:15;17.10;99.90
63960;DHT22;50136;51.374;0.096;2023-04-15T14:58:17;16.10;99.90
63960;DHT22;50136;51.374;0.096;2023-04-15T15:08:20;15.50;99.90
63960;DHT22;50136;51.374;0.096;2023-04-15T15:18:22;15.00;99.90
63960;DHT22;50136;51.374;0.096;2023-04-15T15:38:40;14.70;99.90
63960;DHT22;50136;51.374;0.096;2023-04-15T16:10:05;13.80;99.90
63960;DHT22;50136;51.374;0.096;2023-04-15T16:20:08;14.40;99.90
63960;DHT22;50136;51.374;0.096;2023-04-15T16:30:13;14.00;99.90
63960;DHT22;50136;51.374;0.096;2023-04-15T16:40:15;14.00;99.90
63960;DHT22;50136;51.374;0.096;2023-04-15T16:50:18;13.60;99.90
63960;DHT22;50136;51.374;0.096;2023-04-15T17:00:21;13.30;99.90
63960;DHT22;50136;51.374;0.096;2023-04-15T17:10:25;13.50;99.90
63960;DHT22;50136;51.374;0.096;2023-04-15T17:20:28;13.60;99.90
63960;DHT22;50136;51.374;0.096;2023-04-15T17:30:32;13.30;99.90
63960;DHT22;50136;51.374;0.096;2023-04-15T17:40:34;13.00;99.90
63960;DHT22;50136;51.374;0.096;2023-04-15T17:50:38;12.70;99.90
63960;DHT22;50136;51.374;0.096;2023-04-15T18:00:40;12.50;99.90
63960;DHT22;50136;51.374;0.096;2023-04-15T18:10:46;12.30;99.90
63960;DHT22;50136;51.374;0.096;2023-04-15T18:20:48;12.30;99.90
63960;DHT22;50136;51.374;0.096;2023-04-15T18:30:52;12.30;99.90
63960;DHT22;50136;51.374;0.096;2023-04-15T18:40:54;12.30;99.90
63960;DHT22;50136;51.374;0.096;2023-04-15T18:50:57;12.10;99.90
63960;DHT22;50136;51.374;0.096;2023-04-15T19:00:59;12.00;99.90
63960;DHT22;50136;51.374;0.096;2023-04-15T19:11:02;11.90;99.90
63960;DHT22;50136;51.374;0.096;2023-04-15T19:21:04;11.80;99.90
63960;DHT22;50136;51.374;0.096;2023-04-15T19:31:08;11.70;99.90
63960;DHT22;50136;51.374;0.096;2023-04-15T19:41:10;11.70;99.90
63960;DHT22;50136;51.374;0.096;2023-04-15T19:51:13;11.50;99.90
63960;DHT22;50136;51.374;0.096;2023-04-15T20:01:15;11.50;99.90
63960;DHT22;50136;51.374;0.096;2023-04-15T20:11:19;11.30;99.90
63960;DHT22;50136;51.374;0.096;2023-04-15T20:21:21;10.90;99.90
63960;DHT22;50136;51.374;0.096;2023-04-15T20:31:24;10.60;99.90
63960;DHT22;50136;51.374;0.096;2023-04-15T20:41:26;10.40;99.90
63960;DHT22;50136;51.374;0.096;2023-04-15T20:51:29;10.20;99.90
63960;DHT22;50136;51.374;0.096;2023-04-15T21:01:31;10.20;99.90
63960;DHT22;50136;51.374;0.096;2023-04-15T21:11:35;10.30;99.90
63960;DHT22;50136;51.374;0.096;2023-04-15T21:21:40;10.30;99.90
63960;DHT22;50136;51.374;0.096;2023-04-15T21:31:43;10.20;99.90
63960;DHT22;50136;51.374;0.096;2023-04-15T21:41:45;10.10;99.90
63960;DHT22;50136;51.374;0.096;2023-04-15T21:51:48;10.00;99.90
63960;DHT22;50136;51.374;0.096;2023-04-15T22:01:50;9.90;99.90
63960;DHT22;50136;51.374;0.096;2023-04-15T22:11:54;9.70;99.90
63960;DHT22;50136;51.374;0.096;2023-04-15T22:21:56;9.40;99.90
63960;DHT22;50136;51.374;0.096;2023-04-15T22:31:59;9.00;99.90
63960;DHT22;50136;51.374;0.096;2023-04-15T22:42:01;8.80;99.90
63960;DHT22;50136;51.374;0.096;2023-04-15T22:52:05;8.60;99.90
63960;DHT22;50136;51.374;0.096;2023-04-15T23:02:08;8.40;99.90
63960;DHT22;50136;51.374;0.096;2023-04-15T23:12:12;8.30;99.90
63960;DHT22;50136;51.374;0.096;2023-04-15T23:22:14;8.20;99.90
63960;DHT22;50136;51.374;0.096;2023-04-15T23:32:18;8.10;99.90
63960;DHT22;50136;51.374;0.096;2023-04-15T23:42:20;8.00;99.90
63960;DHT22;50136;51.374;0.096;2023-04-15T23:52:24;7.90;99.90
